This is the latest recevied weather packets stored in our database for station/object OK2CME-6. If no packets are shown the sender has not sent any weather packets the latest 10 day(s).
| Time | Temp. | Humidity | Pressure | Rain* | Wind** | Luminosity | Snow |
|---|---|---|---|---|---|---|---|
| 1777772897 | 12.78° C | 46% | 1022.2 hPa | 0 mm | - | 0 W/m² | - |
| 1777771697 | 12.22° C | 48% | 1022.5 hPa | 0 mm | - | 0 W/m² | - |
| 1777770497 | 12.22° C | 48% | 1022.4 hPa | 0 mm | - | 0 W/m² | - |
| 1777769297 | 12.22° C | 50% | 1022.6 hPa | 0 mm | - | 0 W/m² | - |
| 1777768097 | 12.22° C | 50% | 1022.6 hPa | 0 mm | - | 0 W/m² | - |
| 1777766897 | 13.33° C | 45% | 1022.9 hPa | 0 mm | - | 0 W/m² | - |
| 1777765697 | 13.89° C | 45% | 1022.6 hPa | 0 mm | - | 0 W/m² | - |
| 1777764497 | 13.89° C | 46% | 1023 hPa | 0 mm | - | 0 W/m² | - |
| 1777763297 | 13.33° C | 47% | 1023.1 hPa | 0 mm | - | 0 W/m² | - |
| 1777762097 | 13.33° C | 48% | 1023.3 hPa | 0 mm | - | 0 W/m² | - |
| 1777760897 | 14.44° C | 45% | 1023.2 hPa | 0 mm | - | 0 W/m² | - |
| 1777759697 | 15° C | 44% | 1023.3 hPa | 0 mm | - | 0 W/m² | - |
| 1777758497 | 15° C | 45% | 1023.5 hPa | 0 mm | - | 0 W/m² | - |
| 1777757297 | 15° C | 45% | 1023.7 hPa | 0 mm | - | 0 W/m² | - |
| 1777756097 | 14.44° C | 46% | 1024 hPa | 0 mm | - | 0 W/m² | - |
| 1777754897 | 15° C | 44% | 1023.9 hPa | 0 mm | - | 0 W/m² | - |
| 1777753697 | 14.44° C | 44% | 1023.9 hPa | 0 mm | - | 0 W/m² | - |
| 1777752497 | 15° C | 44% | 1024 hPa | 0 mm | - | 0 W/m² | - |
| 1777751297 | 15.56° C | 43% | 1024 hPa | 0 mm | - | 0 W/m² | - |
| 1777750097 | 15.56° C | 46% | 1024 hPa | 0 mm | - | 0 W/m² | - |
| 1777748897 | 16.67° C | 44% | 1023.9 hPa | 0 mm | - | 0 W/m² | - |
| 1777691714 | 10.56° C | 60% | 1028 hPa | 0 mm | - | 0 W/m² | - |
| 1777690514 | 10° C | 61% | 1028 hPa | 0 mm | - | 0 W/m² | - |
| 1777689314 | 10.56° C | 59% | 1028 hPa | 0 mm | - | 0 W/m² | - |
| 1777688114 | 10° C | 61% | 1028.2 hPa | 0 mm | - | 0 W/m² | - |
* Rain latest hour (hover to see other rain measurements)
** Current wind speed in m/s (hover to see current wind gust speed)